Time;durP1;ratioP1;P1;durP2;ratioP2;P2;SDS_P1;SDS_P2;PMS_P1;PMS_P2;Temp;Humidity;BMP_temperature;BMP_pressure;BME280_temperature;BME280_humidity;BME280_pressure;Samples;Min_cycle;Max_cycle;Signal;HPM_P1;HPM_P2
2023/01/30 00:00:59;;;;;;;38.92;21.48;;;4.50;99.90;;;;;;4947485;28;20176;-87
2023/01/30 00:03:25;;;;;;;32.55;20.20;;;4.50;99.90;;;;;;4949289;28;20407;-87
2023/01/30 00:05:50;;;;;;;39.47;22.43;;;4.50;99.90;;;;;;4969817;28;20267;-87
2023/01/30 00:08:17;;;;;;;29.87;16.63;;;4.50;99.90;;;;;;4967103;28;20877;-88
2023/01/30 00:10:43;;;;;;;38.25;20.23;;;4.50;99.90;;;;;;4953727;28;20204;-88
2023/01/30 00:13:09;;;;;;;35.38;20.35;;;4.50;99.90;;;;;;4953752;28;20251;-87
2023/01/30 00:15:35;;;;;;;37.22;20.67;;;4.60;1.00;;;;;;4968809;28;20607;-87
2023/01/30 00:18:01;;;;;;;35.60;19.80;;;4.60;1.00;;;;;;4950740;28;20196;-87
2023/01/30 00:20:26;;;;;;;40.07;21.63;;;4.60;1.00;;;;;;4964847;28;20267;-87
2023/01/30 00:22:52;;;;;;;33.13;19.70;;;4.60;1.00;;;;;;4941567;28;20294;-89
2023/01/30 00:25:17;;;;;;;37.83;19.70;;;4.70;1.00;;;;;;4972301;28;20283;-87
2023/01/30 00:27:43;;;;;;;39.03;19.87;;;4.70;1.00;;;;;;4969462;28;20695;-84
2023/01/30 00:30:09;;;;;;;35.47;20.23;;;4.70;1.00;;;;;;4966647;28;20200;-87
2023/01/30 00:32:34;;;;;;;40.85;19.25;;;4.70;1.00;;;;;;4957476;28;20258;-87
2023/01/30 00:35:00;;;;;;;37.50;20.33;;;4.80;1.00;;;;;;4969626;28;20564;-87
2023/01/30 00:37:26;;;;;;;36.30;18.83;;;4.80;1.00;;;;;;4959971;28;20278;-87
2023/01/30 00:39:51;;;;;;;34.03;18.13;;;4.80;1.00;;;;;;4962804;28;20608;-88
2023/01/30 00:47:47;;;;;;;40.22;19.15;;;4.90;1.00;;;;;;4968766;28;20196;-87
2023/01/30 00:50:15;;;;;;;39.28;22.45;;;4.90;1.00;;;;;;4953580;28;20201;-88
2023/01/30 00:52:41;;;;;;;36.10;21.95;;;4.90;1.00;;;;;;4961167;28;20239;-87
2023/01/30 00:55:07;;;;;;;35.23;21.20;;;4.90;1.00;;;;;;4966067;28;20184;-87
2023/01/30 00:57:32;;;;;;;38.10;20.67;;;4.90;1.00;;;;;;4961615;28;20181;-87
2023/01/30 00:59:58;;;;;;;36.53;21.20;;;4.90;1.00;;;;;;4972461;28;20263;-87
2023/01/30 01:02:24;;;;;;;39.00;19.87;;;4.90;1.00;;;;;;4968448;28;20196;-87
2023/01/30 01:04:49;;;;;;;38.53;20.60;;;4.90;1.00;;;;;;4961380;28;20212;-87
2023/01/30 01:07:15;;;;;;;39.67;20.07;;;4.90;1.00;;;;;;4960329;28;20185;-87
2023/01/30 01:09:41;;;;;;;41.13;22.07;;;4.90;1.00;;;;;;4967458;28;20196;-88
2023/01/30 01:12:07;;;;;;;35.53;19.13;;;4.90;1.00;;;;;;4966942;28;20208;-87
2023/01/30 01:14:33;;;;;;;32.75;20.02;;;4.90;1.00;;;;;;4973120;28;20821;-88
2023/01/30 01:16:58;;;;;;;35.20;19.07;;;5.00;1.00;;;;;;4975504;28;20184;-87
2023/01/30 01:19:24;;;;;;;33.73;19.63;;;5.00;1.00;;;;;;4975821;28;20239;-88
2023/01/30 01:21:50;;;;;;;36.17;19.87;;;5.00;1.00;;;;;;4957121;28;20191;-86
2023/01/30 01:24:16;;;;;;;34.70;19.97;;;5.00;1.00;;;;;;4965386;28;20208;-87
2023/01/30 01:26:42;;;;;;;34.17;21.83;;;5.00;1.00;;;;;;4954875;28;20648;-88
2023/01/30 01:29:15;;;;;;;35.13;19.88;;;5.00;1.00;;;;;;4969660;28;20272;-87
2023/01/30 01:31:42;;;;;;;33.85;19.60;;;5.00;1.00;;;;;;4965432;28;20279;-87
2023/01/30 01:34:08;;;;;;;35.28;21.95;;;5.00;1.00;;;;;;4971305;28;20204;-87
2023/01/30 01:36:34;;;;;;;34.80;18.10;;;5.10;1.00;;;;;;4963118;28;20192;-90
2023/01/30 01:38:59;;;;;;;42.13;19.93;;;5.10;1.00;;;;;;4959984;28;20448;-87
2023/01/30 01:41:25;;;;;;;33.47;19.77;;;5.10;1.00;;;;;;4965336;28;20211;-87
2023/01/30 01:44:06;;;;;;;35.07;19.27;;;5.10;1.00;;;;;;4963173;28;20204;-87
2023/01/30 01:46:41;;;;;;;31.73;18.20;;;5.10;1.00;;;;;;4970167;28;20275;-87
2023/01/30 01:49:15;;;;;;;35.45;18.90;;;5.20;1.00;;;;;;4963892;28;20184;-87
2023/01/30 01:51:52;;;;;;;37.92;19.95;;;5.20;1.00;;;;;;4971194;28;20211;-87
2023/01/30 01:54:53;;;;;;;29.50;15.65;;;5.20;1.00;;;;;;4964856;28;20208;-87
2023/01/30 01:57:51;;;;;;;32.67;16.60;;;5.20;1.00;;;;;;4920895;28;20210;-87
2023/01/30 02:00:19;;;;;;;36.15;17.75;;;5.20;1.00;;;;;;4955568;28;20208;-87
2023/01/30 02:03:01;;;;;;;36.22;20.38;;;5.20;1.00;;;;;;4969214;28;20331;-87
2023/01/30 02:05:33;;;;;;;33.58;17.23;;;5.30;1.00;;;;;;4962237;28;20605;-88
2023/01/30 02:08:22;;;;;;;30.25;19.77;;;5.30;1.00;;;;;;4968451;28;20278;-87
2023/01/30 02:11:01;;;;;;;33.63;19.75;;;5.30;1.00;;;;;;4959218;28;20299;-88
2023/01/30 02:13:27;;;;;;;36.72;18.60;;;5.30;1.00;;;;;;4958666;28;20223;-90
2023/01/30 02:15:56;;;;;;;30.47;16.80;;;5.30;1.00;;;;;;4964156;28;20185;-87
2023/01/30 02:18:22;;;;;;;29.95;18.60;;;5.30;1.00;;;;;;4971074;28;20448;-87
2023/01/30 02:20:47;;;;;;;31.55;16.85;;;5.30;1.00;;;;;;4945338;28;20207;-87
2023/01/30 02:23:37;;;;;;;36.73;21.47;;;5.30;1.00;;;;;;4960842;28;20587;-88
2023/01/30 02:26:05;;;;;;;31.08;18.65;;;5.30;1.00;;;;;;4970686;28;20200;-87
2023/01/30 02:29:06;;;;;;;30.98;18.23;;;5.30;1.00;;;;;;4965719;28;20181;-88
2023/01/30 02:31:39;;;;;;;37.50;18.75;;;5.30;1.00;;;;;;4964144;28;20564;-88
2023/01/30 02:34:24;;;;;;;34.20;19.58;;;5.30;1.00;;;;;;4959679;28;20196;-87
2023/01/30 02:37:16;;;;;;;35.88;19.77;;;5.30;1.00;;;;;;4974738;28;20176;-87
2023/01/30 02:40:32;;;;;;;35.75;19.95;;;5.40;1.00;;;;;;4968256;28;20247;-87
2023/01/30 02:43:23;;;;;;;40.08;18.75;;;5.30;1.00;;;;;;4935111;28;20230;-87
2023/01/30 02:46:10;;;;;;;38.83;21.80;;;5.40;1.00;;;;;;4978044;28;20275;-87
2023/01/30 02:48:59;;;;;;;32.97;18.70;;;5.40;1.00;;;;;;4973601;28;20319;-89
2023/01/30 02:51:35;;;;;;;35.03;19.73;;;5.40;1.00;;;;;;4940822;28;20192;-88
2023/01/30 02:54:00;;;;;;;36.78;20.13;;;5.30;1.00;;;;;;4961988;28;20215;-88
2023/01/30 02:56:26;;;;;;;36.20;21.90;;;5.30;1.00;;;;;;4973884;28;20193;-87
2023/01/30 02:58:58;;;;;;;33.30;18.10;;;5.30;1.00;;;;;;4968011;28;20192;-87
2023/01/30 03:01:23;;;;;;;36.15;20.13;;;5.30;1.00;;;;;;4953514;28;20191;-87
2023/01/30 03:04:25;;;;;;;36.23;20.77;;;5.30;1.00;;;;;;4970799;28;20201;-87
2023/01/30 03:07:19;;;;;;;30.83;18.10;;;5.30;1.00;;;;;;4948423;28;20223;-88
2023/01/30 03:10:05;;;;;;;37.17;21.13;;;5.30;1.00;;;;;;4966303;28;20604;-86
2023/01/30 03:12:42;;;;;;;34.38;20.05;;;5.30;1.00;;;;;;4965502;28;20205;-88
2023/01/30 03:15:16;;;;;;;40.47;21.20;;;5.30;1.00;;;;;;4973978;28;20549;-86
2023/01/30 03:17:45;;;;;;;39.45;20.65;;;5.30;1.00;;;;;;4959076;28;20623;-86
2023/01/30 03:20:13;;;;;;;47.38;20.98;;;5.30;1.00;;;;;;4974358;28;20184;-87
2023/01/30 03:22:38;;;;;;;38.15;19.10;;;5.30;1.00;;;;;;4957632;28;20723;-88
2023/01/30 03:25:06;;;;;;;33.10;17.87;;;5.40;1.00;;;;;;4963385;28;20193;-86
2023/01/30 03:27:35;;;;;;;31.23;17.50;;;5.40;1.00;;;;;;4954158;28;20207;-86
2023/01/30 03:30:00;;;;;;;37.20;20.33;;;5.40;1.00;;;;;;4964689;28;20199;-87
2023/01/30 03:32:26;;;;;;;31.50;19.40;;;5.50;1.00;;;;;;4968344;28;20224;-87
2023/01/30 03:34:51;;;;;;;32.43;20.30;;;5.50;1.00;;;;;;4970634;28;20208;-87
2023/01/30 03:37:17;;;;;;;29.07;17.63;;;5.50;1.00;;;;;;4973914;28;20196;-86
2023/01/30 03:39:43;;;;;;;30.73;17.63;;;5.50;1.00;;;;;;4964586;28;20223;-86
2023/01/30 03:42:09;;;;;;;32.83;17.80;;;5.60;1.00;;;;;;4967068;28;20747;-87
2023/01/30 03:44:34;;;;;;;29.75;18.58;;;5.60;1.00;;;;;;4947797;28;20592;-86
2023/01/30 03:47:00;;;;;;;30.67;18.70;;;5.60;1.00;;;;;;4969350;28;20195;-86
2023/01/30 03:49:26;;;;;;;31.70;19.20;;;5.60;1.00;;;;;;4965465;28;20196;-86
2023/01/30 03:51:51;;;;;;;30.43;16.77;;;5.70;1.00;;;;;;4973685;28;20882;-86
2023/01/30 03:54:17;;;;;;;31.00;18.50;;;5.70;1.00;;;;;;4971057;28;20231;-86
2023/01/30 03:56:42;;;;;;;36.00;19.10;;;5.70;1.00;;;;;;4969434;28;20549;-86
2023/01/30 03:59:08;;;;;;;35.77;19.20;;;5.70;1.00;;;;;;4958854;28;20185;-86
2023/01/30 04:01:33;;;;;;;34.83;19.40;;;5.70;1.00;;;;;;4967464;28;20193;-87
2023/01/30 04:03:59;;;;;;;34.03;19.03;;;5.70;1.00;;;;;;4966460;28;20210;-87
2023/01/30 04:06:25;;;;;;;32.80;18.20;;;5.80;1.00;;;;;;4962380;28;20181;-86
2023/01/30 04:08:53;;;;;;;35.27;18.57;;;5.80;1.00;;;;;;4965546;28;20184;-86
2023/01/30 04:11:19;;;;;;;34.78;20.08;;;5.80;1.00;;;;;;4959242;28;20212;-86
2023/01/30 04:13:45;;;;;;;35.58;20.02;;;5.80;1.00;;;;;;4957781;28;20205;-86
2023/01/30 04:16:15;;;;;;;29.57;19.13;;;5.80;1.00;;;;;;4962813;28;20701;-86
2023/01/30 04:18:41;;;;;;;30.02;19.20;;;5.80;1.00;;;;;;4957407;28;20177;-86
2023/01/30 04:21:07;;;;;;;36.60;19.73;;;5.90;1.00;;;;;;4969836;28;20236;-87
2023/01/30 04:23:32;;;;;;;33.83;20.03;;;5.90;1.00;;;;;;4969319;28;20207;-86
2023/01/30 04:25:58;;;;;;;31.60;19.60;;;5.90;1.00;;;;;;4954604;28;20185;-86
2023/01/30 04:28:23;;;;;;;34.10;19.97;;;5.90;1.00;;;;;;4958706;28;20188;-87
2023/01/30 04:30:51;;;;;;;36.00;19.30;;;5.90;1.00;;;;;;4973371;28;20192;-87
2023/01/30 04:33:16;;;;;;;38.38;19.45;;;5.90;1.00;;;;;;4958948;28;20236;-86
2023/01/30 04:35:59;;;;;;;35.20;19.40;;;5.90;1.00;;;;;;4943903;29;20185;-86
2023/01/30 04:38:29;;;;;;;31.58;19.52;;;5.90;1.00;;;;;;4959400;28;20312;-87
2023/01/30 04:40:56;;;;;;;35.63;20.00;;;5.90;1.00;;;;;;4947911;28;20667;-86
2023/01/30 04:43:23;;;;;;;35.85;21.77;;;5.90;1.00;;;;;;4921331;29;20232;-86
2023/01/30 04:45:50;;;;;;;34.90;20.60;;;5.90;1.00;;;;;;4966821;28;20191;-86
2023/01/30 04:48:20;;;;;;;37.50;22.20;;;5.80;1.00;;;;;;4968297;28;20223;-87
2023/01/30 04:50:48;;;;;;;34.05;20.38;;;5.80;1.00;;;;;;4940249;28;20248;-86
2023/01/30 04:53:14;;;;;;;39.17;20.77;;;5.80;1.00;;;;;;4957172;28;20292;-87
2023/01/30 04:55:40;;;;;;;35.95;22.80;;;5.80;1.00;;;;;;4964708;28;20239;-87
2023/01/30 04:58:06;;;;;;;39.50;21.20;;;5.90;1.00;;;;;;4953597;28;20563;-86
2023/01/30 05:00:31;;;;;;;35.97;20.77;;;5.90;1.00;;;;;;4966386;28;20467;-87
2023/01/30 05:02:57;;;;;;;39.97;21.67;;;5.80;1.00;;;;;;4970699;28;20273;-86
2023/01/30 05:05:23;;;;;;;39.47;22.83;;;5.90;1.00;;;;;;4962505;28;20204;-85
2023/01/30 05:07:49;;;;;;;39.22;19.55;;;5.90;1.00;;;;;;4958977;28;20197;-86
2023/01/30 05:10:15;;;;;;;47.73;19.30;;;5.90;1.00;;;;;;4961423;28;20664;-87
2023/01/30 05:12:44;;;;;;;36.65;19.13;;;5.90;1.00;;;;;;4970418;28;20303;-87
2023/01/30 05:15:11;;;;;;;35.05;20.20;;;5.90;1.00;;;;;;4968494;28;20188;-86
2023/01/30 05:17:37;;;;;;;36.10;21.48;;;5.90;1.00;;;;;;4972184;28;20180;-87
2023/01/30 05:20:04;;;;;;;34.35;19.45;;;5.90;1.00;;;;;;4951108;28;20180;-87
2023/01/30 05:22:30;;;;;;;27.80;18.00;;;5.90;1.00;;;;;;4935779;28;20251;-86
2023/01/30 05:24:56;;;;;;;39.70;19.30;;;5.90;1.00;;;;;;4946788;28;20193;-86
2023/01/30 05:27:21;;;;;;;33.22;16.98;;;5.90;1.00;;;;;;4964394;28;20229;-87
2023/01/30 05:29:47;;;;;;;36.20;19.17;;;5.90;1.00;;;;;;4970628;28;20227;-87
2023/01/30 05:32:17;;;;;;;30.83;18.63;;;5.90;1.00;;;;;;4963574;28;20240;-86
2023/01/30 05:34:43;;;;;;;34.28;18.35;;;6.00;1.00;;;;;;4953862;28;20208;-86
2023/01/30 05:37:10;;;;;;;32.90;18.30;;;6.00;1.00;;;;;;4966882;28;20188;-87
2023/01/30 05:39:36;;;;;;;29.17;17.52;;;6.00;1.00;;;;;;4955013;28;21021;-87
2023/01/30 05:42:02;;;;;;;33.03;18.37;;;6.00;1.00;;;;;;4966488;28;20196;-86
2023/01/30 05:44:27;;;;;;;29.90;18.13;;;6.00;1.00;;;;;;4968960;28;20714;-86
2023/01/30 05:46:52;;;;;;;32.60;17.90;;;6.00;1.00;;;;;;4967325;28;20454;-87
2023/01/30 05:49:18;;;;;;;29.83;15.70;;;6.10;1.00;;;;;;4971632;28;20249;-87
2023/01/30 05:51:44;;;;;;;28.13;17.20;;;6.10;1.00;;;;;;4966711;28;20725;-86
2023/01/30 05:54:09;;;;;;;29.00;16.30;;;6.10;1.00;;;;;;4965313;28;20215;-86
2023/01/30 05:56:35;;;;;;;26.13;15.90;;;6.10;1.00;;;;;;4960102;28;20726;-87
2023/01/30 05:59:01;;;;;;;25.43;16.53;;;6.10;1.00;;;;;;4967002;28;20207;-87
2023/01/30 06:01:28;;;;;;;27.67;16.10;;;6.20;1.00;;;;;;4963344;28;20199;-87
2023/01/30 06:03:54;;;;;;;30.77;17.00;;;6.20;1.00;;;;;;4961608;28;20294;-86
2023/01/30 06:06:21;;;;;;;32.83;17.15;;;6.20;1.00;;;;;;4967657;28;20205;-86
2023/01/30 06:08:47;;;;;;;25.77;14.40;;;6.20;1.00;;;;;;4948637;28;20212;-86
2023/01/30 06:11:16;;;;;;;29.02;17.10;;;6.20;1.00;;;;;;4965300;28;20188;-86
2023/01/30 06:13:43;;;;;;;25.98;15.65;;;6.20;1.00;;;;;;4940000;28;20219;-87
2023/01/30 06:16:13;;;;;;;26.15;15.07;;;6.30;1.00;;;;;;4951431;29;20196;-87
2023/01/30 06:18:39;;;;;;;31.85;16.00;;;6.30;1.00;;;;;;4977099;28;20244;-85
2023/01/30 06:21:05;;;;;;;24.83;15.27;;;6.30;1.00;;;;;;4966110;28;20212;-87
2023/01/30 06:23:31;;;;;;;30.33;16.37;;;6.30;1.00;;;;;;4944391;28;20236;-86
2023/01/30 06:25:57;;;;;;;23.47;15.37;;;6.30;1.00;;;;;;4971521;28;20471;-87
2023/01/30 06:28:23;;;;;;;27.83;16.63;;;6.30;1.00;;;;;;4969316;28;20452;-87
2023/01/30 06:30:49;;;;;;;27.83;17.05;;;6.40;1.00;;;;;;4969944;28;20443;-87
2023/01/30 06:33:15;;;;;;;23.87;15.70;;;6.40;1.00;;;;;;4954946;28;20212;-87
2023/01/30 06:35:42;;;;;;;24.83;15.60;;;6.40;1.00;;;;;;4966399;28;21057;-87
2023/01/30 06:38:10;;;;;;;25.38;16.95;;;6.40;1.00;;;;;;4966074;28;20444;-86
2023/01/30 06:40:36;;;;;;;30.70;16.77;;;6.40;1.00;;;;;;4951190;28;20185;-89
2023/01/30 06:43:01;;;;;;;26.00;16.67;;;6.40;1.00;;;;;;4968470;28;20224;-86
2023/01/30 06:45:27;;;;;;;30.97;16.07;;;6.40;1.00;;;;;;4970172;28;20192;-87
2023/01/30 06:47:54;;;;;;;25.87;16.23;;;6.40;1.00;;;;;;4964955;28;20319;-87
2023/01/30 06:50:22;;;;;;;23.60;15.38;;;6.40;1.00;;;;;;4952200;28;20189;-86
2023/01/30 06:52:49;;;;;;;29.33;15.95;;;6.50;1.00;;;;;;4948681;28;20308;-87
2023/01/30 06:55:18;;;;;;;24.95;15.98;;;6.50;1.00;;;;;;4957189;28;20576;-87
2023/01/30 06:57:46;;;;;;;31.15;17.25;;;6.50;1.00;;;;;;4947275;28;20666;-87
2023/01/30 07:00:18;;;;;;;28.15;16.40;;;6.50;1.00;;;;;;4955081;28;20707;-87
2023/01/30 07:02:46;;;;;;;25.38;16.00;;;6.50;1.00;;;;;;4960970;28;20192;-87
2023/01/30 07:05:12;;;;;;;26.63;16.17;;;6.50;1.00;;;;;;4946360;28;20188;-87
2023/01/30 07:07:38;;;;;;;27.40;15.97;;;6.50;1.00;;;;;;4962003;28;20185;-87
2023/01/30 07:10:15;;;;;;;29.27;16.92;;;6.50;1.00;;;;;;4954951;28;20839;-87
2023/01/30 07:12:50;;;;;;;24.77;15.25;;;6.60;1.00;;;;;;4947144;28;20211;-87
2023/01/30 07:15:15;;;;;;;27.20;15.35;;;6.60;1.00;;;;;;4947625;29;20188;-87
2023/01/30 07:17:41;;;;;;;25.93;16.33;;;6.70;1.00;;;;;;4959439;28;20184;-87
2023/01/30 07:20:14;;;;;;;26.00;16.57;;;6.70;1.00;;;;;;4958456;28;20208;-87
2023/01/30 07:22:39;;;;;;;24.90;16.40;;;6.80;1.00;;;;;;4962083;28;20468;-87
2023/01/30 07:25:05;;;;;;;26.13;15.00;;;6.80;1.00;;;;;;4966829;28;20188;-87
2023/01/30 07:27:40;;;;;;;22.80;15.13;;;6.90;1.00;;;;;;4965735;28;20184;-87
2023/01/30 07:30:06;;;;;;;23.83;15.50;;;6.90;1.00;;;;;;4947698;28;20188;-86
2023/01/30 07:32:34;;;;;;;20.77;14.93;;;6.90;1.00;;;;;;4974430;28;20215;-85
2023/01/30 07:35:02;;;;;;;24.13;15.05;;;6.90;1.00;;;;;;4948784;28;20193;-87
2023/01/30 07:37:28;;;;;;;27.90;16.48;;;7.00;1.00;;;;;;4950945;28;20204;-87
2023/01/30 07:39:53;;;;;;;26.13;16.10;;;7.00;1.00;;;;;;4947289;28;20598;-87
2023/01/30 07:42:19;;;;;;;26.40;16.00;;;7.00;1.00;;;;;;4943233;28;20184;-87
2023/01/30 07:44:44;;;;;;;24.80;15.83;;;7.00;1.00;;;;;;4965973;28;20315;-86
2023/01/30 07:47:10;;;;;;;24.50;15.30;;;7.00;1.00;;;;;;4956825;28;20268;-87
2023/01/30 07:49:36;;;;;;;25.57;17.30;;;7.10;1.00;;;;;;4962283;28;20188;-87
2023/01/30 07:52:01;;;;;;;24.63;16.30;;;7.10;1.00;;;;;;4943934;28;20579;-87
2023/01/30 07:54:29;;;;;;;23.63;15.77;;;7.10;1.00;;;;;;4968177;28;20208;-86
2023/01/30 07:57:02;;;;;;;24.98;15.98;;;7.20;1.00;;;;;;4961674;28;20274;-86
2023/01/30 07:59:27;;;;;;;24.95;16.73;;;7.20;1.00;;;;;;4965856;28;20619;-85
2023/01/30 08:01:53;;;;;;;27.00;15.97;;;7.30;1.00;;;;;;4954897;28;20220;-87
2023/01/30 08:04:19;;;;;;;25.30;15.63;;;7.30;1.00;;;;;;4950275;28;20216;-88
2023/01/30 08:06:50;;;;;;;24.40;15.33;;;7.30;1.00;;;;;;4968916;28;20192;-87
2023/01/30 08:09:16;;;;;;;22.58;13.68;;;7.40;1.00;;;;;;4948473;28;20192;-87
2023/01/30 08:11:44;;;;;;;28.73;16.37;;;7.40;1.00;;;;;;4946282;28;20218;-86
2023/01/30 08:14:10;;;;;;;29.48;14.90;;;7.40;1.00;;;;;;4972462;28;20638;-87
2023/01/30 08:16:41;;;;;;;24.63;13.80;;;7.50;1.00;;;;;;4971964;28;20239;-87
2023/01/30 08:19:14;;;;;;;18.58;14.20;;;7.60;1.00;;;;;;4957920;28;20447;-87
2023/01/30 08:21:40;;;;;;;22.70;13.55;;;7.70;1.00;;;;;;4960005;28;20184;-87
2023/01/30 08:24:06;;;;;;;22.73;13.10;;;8.00;1.00;;;;;;4970912;28;20246;-88
2023/01/30 08:26:34;;;;;;;18.47;12.53;;;8.40;1.00;;;;;;4962785;28;20653;-87
2023/01/30 08:29:00;;;;;;;19.07;11.80;;;9.70;1.00;;;;;;4950063;28;20485;-87
2023/01/30 08:31:33;;;;;;;17.20;11.77;;;10.50;99.90;;;;;;4965788;28;20444;-87
2023/01/30 08:34:16;;;;;;;15.60;10.80;;;11.50;36.00;;;;;;4951426;28;20225;-87
2023/01/30 08:36:45;;;;;;;12.30;9.67;;;11.80;99.90;;;;;;4958999;28;20440;-88
2023/01/30 08:39:11;;;;;;;12.73;7.90;;;12.20;99.90;;;;;;4935450;28;20440;-88
2023/01/30 08:41:36;;;;;;;9.37;6.50;;;13.50;99.90;;;;;;4959457;28;21001;-88
2023/01/30 08:44:02;;;;;;;9.83;6.50;;;15.00;99.90;;;;;;4953861;28;20222;-89
2023/01/30 08:46:27;;;;;;;10.53;5.67;;;16.20;1.00;;;;;;4965778;28;20709;-88
2023/01/30 08:48:53;;;;;;;11.77;6.17;;;17.20;1.00;;;;;;4954727;28;20191;-88
2023/01/30 08:51:18;;;;;;;11.40;4.87;;;18.10;99.90;;;;;;4964634;28;20177;-88
2023/01/30 08:53:44;;;;;;;8.77;4.50;;;18.90;99.90;;;;;;4956166;28;20210;-87
2023/01/30 08:56:09;;;;;;;16.50;5.60;;;19.50;99.90;;;;;;4961414;28;20693;-88
2023/01/30 08:58:35;;;;;;;9.87;4.70;;;20.10;99.90;;;;;;4945189;28;20652;-88
2023/01/30 09:01:05;;;;;;;7.23;4.00;;;20.40;99.90;;;;;;4948325;28;20670;-87
2023/01/30 09:03:30;;;;;;;9.80;4.17;;;20.90;99.90;;;;;;4966233;28;20223;-87
2023/01/30 09:05:56;;;;;;;7.43;4.23;;;21.20;99.90;;;;;;4958983;28;20447;-87
2023/01/30 09:08:21;;;;;;;15.53;5.07;;;21.50;99.90;;;;;;4958498;28;20188;-87
2023/01/30 09:10:47;;;;;;;9.97;3.80;;;21.70;99.90;;;;;;4937974;28;20209;-89
2023/01/30 09:13:16;;;;;;;9.17;3.60;;;21.90;99.90;;;;;;4957711;28;20223;-86
2023/01/30 09:16:03;;;;;;;12.43;4.37;;;22.00;99.90;;;;;;4959189;28;20195;-87
2023/01/30 09:18:31;;;;;;;11.03;4.40;;;21.50;99.90;;;;;;4964118;28;20446;-88
2023/01/30 09:21:11;;;;;;;12.47;4.37;;;20.60;99.90;;;;;;4958564;28;20795;-88
2023/01/30 09:26:58;;;;;;;9.43;4.30;;;20.10;99.90;;;;;;4909315;28;20497;-88
2023/01/30 09:29:28;;;;;;;9.43;3.70;;;19.90;99.90;;;;;;4961175;28;20969;-87
2023/01/30 09:31:57;;;;;;;13.30;3.60;;;20.50;99.90;;;;;;4928626;28;20820;-88
2023/01/30 09:34:27;;;;;;;8.37;3.50;;;21.00;99.90;;;;;;4939685;28;20473;-88
2023/01/30 09:36:59;;;;;;;13.50;3.70;;;21.10;99.90;;;;;;4954583;28;20441;-88
2023/01/30 09:39:25;;;;;;;12.23;3.77;;;21.10;99.90;;;;;;4944312;28;20439;-89
2023/01/30 09:42:24;;;;;;;10.10;3.77;;;20.90;99.90;;;;;;4948157;28;20473;-88
2023/01/30 09:44:53;;;;;;;10.90;3.40;;;21.00;99.90;;;;;;4957526;28;20553;-89
2023/01/30 09:47:32;;;;;;;8.70;3.87;;;21.20;99.90;;;;;;4971878;28;20434;-88
2023/01/30 09:50:45;;;;;;;12.83;3.27;;;21.30;99.90;;;;;;4950824;28;20987;-87
2023/01/30 09:53:28;;;;;;;13.53;3.87;;;21.00;99.90;;;;;;4947650;28;20511;-88
2023/01/30 09:55:57;;;;;;;9.73;3.67;;;20.20;99.90;;;;;;4945097;28;20882;-88
2023/01/30 09:58:25;;;;;;;9.33;3.87;;;18.90;99.90;;;;;;4958847;28;20500;-87
2023/01/30 10:00:55;;;;;;;9.70;3.60;;;17.60;99.90;;;;;;4960316;28;20459;-88
2023/01/30 10:03:42;;;;;;;11.83;3.57;;;16.50;99.90;;;;;;4963849;28;20482;-87
2023/01/30 10:06:13;;;;;;;8.60;3.67;;;15.60;99.90;;;;;;4965078;28;20451;-87
2023/01/30 10:08:48;;;;;;;9.60;3.77;;;14.70;99.90;;;;;;4938648;28;20929;-89
2023/01/30 10:11:19;;;;;;;14.10;3.80;;;14.10;99.90;;;;;;4952558;28;20442;-87
2023/01/30 10:14:26;;;;;;;14.80;4.00;;;13.40;99.90;;;;;;4958248;28;20543;-89
2023/01/30 10:17:09;;;;;;;12.93;4.20;;;12.70;99.90;;;;;;4875382;29;20503;-88
2023/01/30 10:19:51;;;;;;;8.73;3.90;;;12.50;99.90;;;;;;4962122;28;20501;-88
2023/01/30 10:22:33;;;;;;;11.93;3.47;;;12.60;99.90;;;;;;4953572;28;21071;-87
2023/01/30 10:25:04;;;;;;;8.03;3.00;;;12.60;99.90;;;;;;4956288;28;20438;-87
2023/01/30 10:27:32;;;;;;;8.13;3.20;;;12.80;99.90;;;;;;4951615;28;20436;-88
2023/01/30 10:30:01;;;;;;;16.67;3.27;;;12.80;99.90;;;;;;4956358;28;20442;-88
2023/01/30 10:32:42;;;;;;;12.20;4.10;;;12.60;99.90;;;;;;4950278;28;20448;-88
2023/01/30 10:35:21;;;;;;;15.10;3.50;;;12.20;99.90;;;;;;4942820;28;20446;-86
2023/01/30 10:37:58;;;;;;;14.43;4.67;;;11.80;99.90;;;;;;4962647;28;20437;-86
2023/01/30 10:40:36;;;;;;;10.77;3.77;;;11.50;99.90;;;;;;4949606;28;20811;-87
2023/01/30 10:43:07;;;;;;;11.90;2.77;;;11.30;99.90;;;;;;4965969;28;20503;-87
2023/01/30 10:45:51;;;;;;;17.70;4.27;;;11.10;99.90;;;;;;4960404;28;20428;-87
2023/01/30 10:48:47;;;;;;;13.63;3.20;;;10.90;99.90;;;;;;4962278;28;20936;-86
2023/01/30 10:51:12;;;;;;;11.13;3.30;;;10.80;99.90;;;;;;4952840;28;20952;-87
2023/01/30 10:54:18;;;;;;;13.80;3.43;;;10.70;99.90;;;;;;4951710;28;20487;-87
2023/01/30 10:57:10;;;;;;;8.87;3.40;;;10.50;99.90;;;;;;4923621;28;20197;-87
2023/01/30 10:59:48;;;;;;;14.40;4.13;;;10.30;99.90;;;;;;4970748;28;20438;-88
2023/01/30 11:02:39;;;;;;;15.33;3.27;;;10.20;99.90;;;;;;4959332;28;20479;-88
2023/01/30 11:05:17;;;;;;;9.80;3.50;;;10.00;99.90;;;;;;4956112;28;20439;-87
2023/01/30 11:08:45;;;;;;;15.43;2.80;;;9.90;99.90;;;;;;4958545;28;20514;-87
2023/01/30 11:11:48;;;;;;;14.10;2.70;;;9.70;1.00;;;;;;4875263;29;20463;-87
2023/01/30 11:14:14;;;;;;;13.30;3.33;;;9.70;1.00;;;;;;4963815;28;20981;-87
2023/01/30 11:17:28;;;;;;;19.50;3.67;;;9.60;1.00;;;;;;4942388;28;20445;-86
2023/01/30 11:20:00;;;;;;;12.53;2.63;;;9.50;1.00;;;;;;4959299;28;20858;-88
2023/01/30 11:22:29;;;;;;;11.23;2.73;;;9.50;1.00;;;;;;4960847;28;20459;-87
2023/01/30 11:25:24;;;;;;;14.47;3.00;;;9.50;1.00;;;;;;4958751;28;20539;-88
2023/01/30 11:28:04;;;;;;;15.60;2.80;;;9.50;1.00;;;;;;4937940;28;20505;-87
2023/01/30 11:30:34;;;;;;;11.00;3.40;;;9.40;1.00;;;;;;4969510;28;20490;-87
2023/01/30 11:33:15;;;;;;;10.70;2.30;;;9.40;1.00;;;;;;4962566;28;20832;-87
2023/01/30 11:35:59;;;;;;;10.20;2.87;;;9.30;1.00;;;;;;4963361;28;20819;-87
2023/01/30 11:38:37;;;;;;;11.53;2.63;;;9.30;1.00;;;;;;4965466;28;20451;-88
2023/01/30 11:41:06;;;;;;;19.97;3.07;;;9.20;1.00;;;;;;4942483;28;20927;-86
2023/01/30 11:43:38;;;;;;;14.43;2.47;;;9.20;1.00;;;;;;4956006;28;20476;-87
2023/01/30 11:46:07;;;;;;;16.03;3.33;;;9.10;1.00;;;;;;4956520;28;20442;-87
2023/01/30 11:48:35;;;;;;;10.00;2.80;;;9.10;1.00;;;;;;4966023;28;20852;-87
2023/01/30 11:51:05;;;;;;;14.47;2.50;;;9.10;1.00;;;;;;4955056;28;20444;-86
2023/01/30 11:53:38;;;;;;;11.63;2.87;;;9.10;1.00;;;;;;4954607;28;20465;-88
2023/01/30 11:56:15;;;;;;;8.53;3.07;;;9.10;1.00;;;;;;4957894;28;20472;-88
2023/01/30 11:58:46;;;;;;;7.97;2.50;;;9.10;1.00;;;;;;4953658;28;20941;-88
2023/01/30 12:01:13;;;;;;;15.53;3.43;;;9.10;1.00;;;;;;4958004;28;20927;-89
2023/01/30 12:03:53;;;;;;;7.63;3.00;;;9.10;1.00;;;;;;4956431;28;20488;-89
2023/01/30 12:06:36;;;;;;;9.60;2.87;;;9.10;1.00;;;;;;4950185;28;20440;-89
2023/01/30 12:09:08;;;;;;;12.77;3.03;;;9.10;1.00;;;;;;4955138;28;20933;-86
2023/01/30 12:11:41;;;;;;;14.07;3.90;;;9.00;1.00;;;;;;4962512;28;20955;-88
2023/01/30 12:14:17;;;;;;;10.70;2.63;;;9.00;1.00;;;;;;4962869;28;20846;-88
2023/01/30 12:17:27;;;;;;;7.60;2.70;;;9.00;1.00;;;;;;4967321;28;20459;-86
2023/01/30 12:20:15;;;;;;;15.10;2.87;;;9.10;1.00;;;;;;4926968;29;20467;-87
2023/01/30 12:22:48;;;;;;;14.50;3.17;;;9.10;1.00;;;;;;4959564;28;20537;-87
2023/01/30 12:25:28;;;;;;;18.83;3.77;;;9.10;1.00;;;;;;4948186;28;20544;-87
2023/01/30 12:27:59;;;;;;;13.23;3.40;;;9.10;1.00;;;;;;4959148;28;20596;-87
2023/01/30 12:30:43;;;;;;;15.77;3.40;;;9.10;1.00;;;;;;4964744;28;20436;-87
2023/01/30 12:33:14;;;;;;;13.07;3.10;;;9.00;1.00;;;;;;4961049;28;20464;-86
2023/01/30 12:35:39;;;;;;;13.90;3.27;;;9.00;1.00;;;;;;4968302;28;20435;-87
2023/01/30 12:38:20;;;;;;;14.40;2.97;;;9.00;1.00;;;;;;4964635;28;20445;-87
2023/01/30 12:41:11;;;;;;;8.77;2.90;;;9.00;1.00;;;;;;4953544;28;20721;-87
2023/01/30 12:44:01;;;;;;;8.80;3.10;;;9.10;1.00;;;;;;4943360;28;20483;-88
2023/01/30 12:46:32;;;;;;;13.93;2.70;;;9.10;1.00;;;;;;4955219;28;20470;-88
2023/01/30 12:49:23;;;;;;;13.40;2.57;;;9.30;1.00;;;;;;4960122;28;20510;-87
2023/01/30 12:52:27;;;;;;;7.60;2.90;;;9.40;1.00;;;;;;4951870;28;20443;-87
2023/01/30 12:55:25;;;;;;;15.40;3.23;;;9.50;1.00;;;;;;4947732;28;20460;-87
2023/01/30 12:57:59;;;;;;;12.13;3.03;;;9.60;1.00;;;;;;4958822;28;20987;-87
2023/01/30 13:00:43;;;;;;;17.90;3.47;;;9.70;99.90;;;;;;4944445;28;20437;-88
2023/01/30 13:03:40;;;;;;;14.27;3.23;;;9.70;99.90;;;;;;4955833;28;20471;-88
2023/01/30 13:06:36;;;;;;;18.70;3.00;;;9.80;99.90;;;;;;4957491;28;20510;-88
2023/01/30 13:09:38;;;;;;;15.83;3.70;;;9.80;99.90;;;;;;4953189;28;20512;-87
2023/01/30 13:12:47;;;;;;;17.20;4.37;;;9.80;99.90;;;;;;4949240;28;20520;-88
2023/01/30 13:15:34;;;;;;;19.27;3.50;;;9.80;99.90;;;;;;4949865;28;20482;-86
2023/01/30 13:18:19;;;;;;;14.50;3.20;;;9.80;99.90;;;;;;4952936;28;20460;-88
2023/01/30 13:21:29;;;;;;;11.10;2.90;;;10.00;99.90;;;;;;4965781;28;20437;-88
2023/01/30 13:24:32;;;;;;;10.47;2.60;;;10.40;99.90;;;;;;4952340;28;20489;-87